createdAt,value
2017-01-04T00:00:45.933Z,24.58
2017-01-04T00:01:45.872Z,24.11
2017-01-04T00:02:45.811Z,24.58
2017-01-04T00:03:45.748Z,24.4
2017-01-04T00:04:45.706Z,24.11
2017-01-04T00:05:45.625Z,24.11
2017-01-04T00:06:45.559Z,24.11
2017-01-04T00:07:45.496Z,24.39
2017-01-04T00:08:45.433Z,24.29
2017-01-04T00:09:45.374Z,24.21
2017-01-04T00:10:45.311Z,24.39
2017-01-04T00:11:45.245Z,24.3
2017-01-04T00:12:45.200Z,24.4
2017-01-04T00:13:45.123Z,24.29
2017-01-04T00:14:45.059Z,24.29
2017-01-04T00:15:44.994Z,24.39
2017-01-04T00:16:44.933Z,24.2
2017-01-04T00:17:44.874Z,24.1
2017-01-04T00:18:44.807Z,24.29
2017-01-04T00:19:44.745Z,24.4
2017-01-04T00:20:44.684Z,24.2
2017-01-04T00:21:44.620Z,24.58
2017-01-04T00:22:44.559Z,24.68
2017-01-04T00:23:44.498Z,24.2
2017-01-04T00:24:44.434Z,24.58
2017-01-04T00:25:44.368Z,24.2
2017-01-04T00:26:44.307Z,24.4
2017-01-04T00:27:44.244Z,24.29
2017-01-04T00:28:44.181Z,24.21
2017-01-04T00:29:44.123Z,24.68
2017-01-04T00:30:44.057Z,24.58
2017-01-04T00:31:44.004Z,24.1
2017-01-04T00:32:43.935Z,24.1
2017-01-04T00:33:43.868Z,24.39
2017-01-04T00:34:43.805Z,24.2
2017-01-04T00:35:43.743Z,24.39
2017-01-04T00:36:43.683Z,24.39
2017-01-04T00:37:43.618Z,24.29
2017-01-04T00:38:43.556Z,24.29
2017-01-04T00:39:43.497Z,24.3
2017-01-04T00:40:43.431Z,24.29
2017-01-04T00:41:43.571Z,24.39
2017-01-04T00:42:43.307Z,24.2
2017-01-04T00:43:43.243Z,24.39
2017-01-04T00:44:43.180Z,24.58
2017-01-04T00:45:43.117Z,24.2
2017-01-04T00:46:43.056Z,24.5
2017-01-04T00:47:42.994Z,24.39
2017-01-04T00:48:42.931Z,24.2
2017-01-04T00:49:42.878Z,24.39
2017-01-04T00:50:42.810Z,24.4
2017-01-04T00:51:42.742Z,24.2
2017-01-04T00:52:42.682Z,24.58
2017-01-04T00:53:42.617Z,24.58
2017-01-04T00:54:42.554Z,24.1
2017-01-04T00:55:42.493Z,24.29
2017-01-04T00:56:42.430Z,24.39
2017-01-04T00:57:42.370Z,24.39
2017-01-04T00:58:42.304Z,24.58
2017-01-04T00:59:42.279Z,24.58
2017-01-04T01:01:12.474Z,24.29
2017-01-04T01:02:12.405Z,24.2
2017-01-04T01:03:12.342Z,24.4
2017-01-04T01:04:12.280Z,24.29
2017-01-04T01:05:12.218Z,24.39
2017-01-04T01:06:12.156Z,24.29
2017-01-04T01:07:12.093Z,24.39
2017-01-04T01:08:12.029Z,24.29
2017-01-04T01:09:11.966Z,24.29
2017-01-04T01:10:11.906Z,24.11
2017-01-04T01:11:11.867Z,24.68
2017-01-04T01:12:11.779Z,24.39
2017-01-04T01:13:11.716Z,24.49
2017-01-04T01:14:11.655Z,24.29
2017-01-04T01:15:11.591Z,24.39
2017-01-04T01:16:11.531Z,24.58
2017-01-04T01:17:11.466Z,24.6
2017-01-04T01:18:11.407Z,24.29
2017-01-04T01:19:11.339Z,24.3
2017-01-04T01:20:11.282Z,24.4
2017-01-04T01:21:11.217Z,24.39
2017-01-04T01:22:11.152Z,24.49
2017-01-04T01:23:11.090Z,24.29
2017-01-04T01:24:11.028Z,24.5
2017-01-04T01:25:10.966Z,24.4
2017-01-04T01:26:10.902Z,24.39
2017-01-04T01:27:10.842Z,24.29
2017-01-04T01:28:10.779Z,24.29
2017-01-04T01:29:10.714Z,24.3
2017-01-04T01:30:10.652Z,24.39
2017-01-04T01:31:10.590Z,24.6
2017-01-04T01:32:10.527Z,24.29
2017-01-04T01:33:10.467Z,24.58
2017-01-04T01:34:10.401Z,24.39
2017-01-04T01:35:10.345Z,24.39
2017-01-04T01:36:10.277Z,24.39
2017-01-04T01:37:10.211Z,24.58
2017-01-04T01:38:10.150Z,24.39
2017-01-04T01:39:10.090Z,24.39
2017-01-04T01:40:10.028Z,24.58
2017-01-04T01:41:09.961Z,24.39
2017-01-04T01:42:09.900Z,24.39
2017-01-04T01:43:09.839Z,24.49
2017-01-04T01:44:09.798Z,24.5
2017-01-04T01:45:09.714Z,24.6
2017-01-04T01:46:09.650Z,24.49
2017-01-04T01:47:09.588Z,24.5
2017-01-04T01:48:09.525Z,24.58
2017-01-04T01:49:09.465Z,24.6
2017-01-04T01:50:09.402Z,24.58
2017-01-04T01:51:09.339Z,24.49
2017-01-04T01:52:09.290Z,24.6
2017-01-04T01:53:09.213Z,24.29
2017-01-04T01:54:09.152Z,24.49
2017-01-04T01:55:09.091Z,24.49
2017-01-04T01:56:09.035Z,24.29
2017-01-04T01:57:08.961Z,24.58
2017-01-04T01:58:08.900Z,24.49
2017-01-04T01:59:08.836Z,24.58
2017-01-04T02:00:08.776Z,24.49
2017-01-04T02:01:08.711Z,24.49
2017-01-04T02:02:08.648Z,24.39
2017-01-04T02:03:08.586Z,24.5
2017-01-04T02:04:08.525Z,24.58
2017-01-04T02:05:08.460Z,24.5
2017-01-04T02:06:08.397Z,24.49
2017-01-04T02:07:08.337Z,24.49
2017-01-04T02:08:08.272Z,24.49
2017-01-04T02:09:08.214Z,24.49
2017-01-04T02:10:08.172Z,24.49
2017-01-04T02:11:08.085Z,24.49
2017-01-04T02:12:08.021Z,24.5
2017-01-04T02:13:07.961Z,24.49
2017-01-04T02:14:07.912Z,24.49
2017-01-04T02:15:07.835Z,24.39
2017-01-04T02:16:08.162Z,24.39
2017-01-04T02:17:07.710Z,24.49
2017-01-04T02:18:07.647Z,24.49
2017-01-04T02:19:07.588Z,24.58
2017-01-04T02:20:07.521Z,24.49
2017-01-04T02:21:07.460Z,24.58
2017-01-04T02:22:07.397Z,24.5
2017-01-04T02:23:07.333Z,24.49
2017-01-04T02:24:07.272Z,24.29
2017-01-04T02:25:07.206Z,24.29
2017-01-04T02:26:07.146Z,24.39
2017-01-04T02:27:07.083Z,24.49
2017-01-04T02:28:07.022Z,24.49
2017-01-04T02:29:06.958Z,24.49
2017-01-04T02:30:06.894Z,24.49
2017-01-04T02:31:06.830Z,24.49
2017-01-04T02:32:06.770Z,24.49
2017-01-04T02:33:06.704Z,24.39
2017-01-04T02:34:07.033Z,24.49
2017-01-04T02:35:06.582Z,24.29
2017-01-04T02:36:06.520Z,24.49
2017-01-04T02:37:06.461Z,24.49
2017-01-04T02:38:06.399Z,24.49
2017-01-04T02:39:06.331Z,24.58
2017-01-04T02:40:06.269Z,24.29
2017-01-04T02:41:06.208Z,24.49
2017-01-04T02:42:06.144Z,24.49
2017-01-04T02:43:06.081Z,24.49
2017-01-04T02:44:06.022Z,24.39
2017-01-04T02:45:05.956Z,24.49
2017-01-04T02:46:05.892Z,24.49
2017-01-04T02:47:05.831Z,24.49
2017-01-04T02:48:05.768Z,24.49
2017-01-04T02:49:05.734Z,24.49
2017-01-04T02:50:05.644Z,24.49
2017-01-04T02:51:05.581Z,24.49
2017-01-04T02:52:05.517Z,24.49
2017-01-04T02:53:05.456Z,24.58
2017-01-04T02:54:05.389Z,24.68
2017-01-04T02:55:05.328Z,24.58
2017-01-04T02:56:05.267Z,24.49
2017-01-04T02:57:05.203Z,24.39
2017-01-04T02:58:05.140Z,24.49
2017-01-04T02:59:05.078Z,24.49
2017-01-04T03:00:05.014Z,24.49
2017-01-04T03:01:04.953Z,24.49
2017-01-04T03:02:04.914Z,24.49
2017-01-04T03:03:04.829Z,24.58
2017-01-04T03:04:04.770Z,24.49
2017-01-04T03:05:04.703Z,24.49
2017-01-04T03:06:04.637Z,24.49
2017-01-04T03:07:04.575Z,24.58
2017-01-04T03:08:04.514Z,24.49
2017-01-04T03:09:04.452Z,24.58
2017-01-04T03:10:04.391Z,24.49
2017-01-04T03:11:04.330Z,24.68
2017-01-04T03:12:04.264Z,24.68
2017-01-04T03:13:04.203Z,24.49
2017-01-04T03:14:04.137Z,24.49
2017-01-04T03:15:04.079Z,24.58
2017-01-04T03:16:04.014Z,24.49
2017-01-04T03:17:03.952Z,24.68
2017-01-04T03:18:03.886Z,24.29
2017-01-04T03:19:03.825Z,24.49
2017-01-04T03:20:03.777Z,24.49
2017-01-04T03:21:03.702Z,24.58
2017-01-04T03:22:03.637Z,24.49
2017-01-04T03:23:03.575Z,24.49
2017-01-04T03:24:03.512Z,24.29
2017-01-04T03:25:03.473Z,24.58
2017-01-04T03:26:03.388Z,24.58
2017-01-04T03:27:03.325Z,24.58
2017-01-04T03:28:03.264Z,24.58
2017-01-04T03:29:03.200Z,24.58
2017-01-04T03:30:03.137Z,24.49
2017-01-04T03:31:03.073Z,24.39
2017-01-04T03:32:03.013Z,24.49
2017-01-04T03:33:02.950Z,24.29
2017-01-04T03:34:02.890Z,24.68
2017-01-04T03:35:02.824Z,24.49
2017-01-04T03:36:02.762Z,24.58
2017-01-04T03:37:02.699Z,24.58
2017-01-04T03:38:02.636Z,24.29
2017-01-04T03:39:02.572Z,24.49
2017-01-04T03:40:02.510Z,24.49
2017-01-04T03:41:02.456Z,24.58
2017-01-04T03:42:02.385Z,24.29
2017-01-04T03:43:02.322Z,24.29
2017-01-04T03:44:02.260Z,24.58
2017-01-04T03:45:02.199Z,24.29
2017-01-04T03:46:02.135Z,24.49
2017-01-04T03:47:02.073Z,24.49
2017-01-04T03:48:02.013Z,24.49
2017-01-04T03:49:01.943Z,24.68
2017-01-04T03:50:01.883Z,24.58
2017-01-04T03:51:01.822Z,24.58
2017-01-04T03:52:01.759Z,24.29
2017-01-04T03:53:01.696Z,24.58
2017-01-04T03:54:01.633Z,24.58
2017-01-04T03:55:01.569Z,24.58
2017-01-04T03:56:01.507Z,24.49
2017-01-04T03:57:01.446Z,24.49
2017-01-04T03:58:01.382Z,24.58
2017-01-04T03:59:01.321Z,24.29
2017-01-04T04:00:01.269Z,24.58
2017-01-04T04:01:01.199Z,24.68
2017-01-04T04:02:01.131Z,24.6
2017-01-04T04:03:01.068Z,24.58
2017-01-04T04:04:01.019Z,24.68
2017-01-04T04:05:00.947Z,24.58
2017-01-04T04:06:00.880Z,24.49
2017-01-04T04:07:00.819Z,24.58
2017-01-04T04:08:00.760Z,24.29
2017-01-04T04:09:00.691Z,24.29
2017-01-04T04:10:00.631Z,24.29
2017-01-04T04:11:00.568Z,24.29
2017-01-04T04:12:00.899Z,24.29
2017-01-04T04:13:00.450Z,24.49
2017-01-04T04:14:00.382Z,24.49
2017-01-04T04:15:00.318Z,24.58
2017-01-04T04:16:00.256Z,24.49
2017-01-04T04:17:00.194Z,24.49
2017-01-04T04:18:00.131Z,24.58
2017-01-04T04:19:00.068Z,24.29
2017-01-04T04:20:00.007Z,24.49
2017-01-04T04:20:59.942Z,24.49
2017-01-04T04:21:59.878Z,24.49
2017-01-04T04:22:59.816Z,24.58
2017-01-04T04:23:59.757Z,24.49
2017-01-04T04:24:59.691Z,24.49
2017-01-04T04:25:59.631Z,24.49
2017-01-04T04:26:59.567Z,24.58
2017-01-04T04:27:59.504Z,24.58
2017-01-04T04:28:59.440Z,24.49
2017-01-04T04:29:59.379Z,24.58
2017-01-04T04:30:59.342Z,24.39
2017-01-04T04:31:59.254Z,24.49
2017-01-04T04:32:59.191Z,24.49
2017-01-04T04:33:59.129Z,24.49
2017-01-04T04:34:59.072Z,24.39
2017-01-04T04:35:59.002Z,24.49
2017-01-04T04:36:58.941Z,24.58
2017-01-04T04:37:58.877Z,24.49
2017-01-04T04:38:58.815Z,24.58
2017-01-04T04:39:58.751Z,24.49
2017-01-04T04:40:58.715Z,24.39
2017-01-04T04:41:58.629Z,24.49
2017-01-04T04:42:58.576Z,24.49
2017-01-04T04:43:58.502Z,24.49
2017-01-04T04:44:58.439Z,24.39
2017-01-04T04:45:58.565Z,24.29
2017-01-04T04:46:58.315Z,24.29
2017-01-04T04:47:58.252Z,24.39
2017-01-04T04:48:58.191Z,24.49
2017-01-04T04:49:58.156Z,24.29
2017-01-04T04:50:58.064Z,24.29
2017-01-04T04:51:58.002Z,24.29
2017-01-04T04:52:57.940Z,24.39
2017-01-04T04:53:57.874Z,24.29
2017-01-04T04:54:57.811Z,24.58
2017-01-04T04:55:57.748Z,24.29
2017-01-04T04:56:57.694Z,24.29
2017-01-04T04:57:57.628Z,24.29
2017-01-04T04:58:57.561Z,24.29
2017-01-04T04:59:57.500Z,24.29
2017-01-04T05:00:57.437Z,24.29
2017-01-04T05:01:57.376Z,24.39
2017-01-04T05:02:57.311Z,24.29
2017-01-04T05:03:57.250Z,24.29
2017-01-04T05:04:57.187Z,24.58
2017-01-04T05:05:57.127Z,24.29
2017-01-04T05:06:57.453Z,24.29
2017-01-04T05:07:57.000Z,24.2
2017-01-04T05:08:56.935Z,24.29
2017-01-04T05:09:56.875Z,24.29
2017-01-04T05:10:56.810Z,24.1
2017-01-04T05:11:56.748Z,24.29
2017-01-04T05:12:56.684Z,24.39
2017-01-04T05:13:56.622Z,24.39
2017-01-04T05:14:56.560Z,24.2
2017-01-04T05:15:56.496Z,24.1
2017-01-04T05:16:56.433Z,24.39
2017-01-04T05:17:56.370Z,24.29
2017-01-04T05:18:56.315Z,24.39
2017-01-04T05:19:56.246Z,24.1
2017-01-04T05:20:56.183Z,24.2
2017-01-04T05:21:56.119Z,24.2
2017-01-04T05:22:56.059Z,23.81
2017-01-04T05:23:55.995Z,23.62
2017-01-04T05:24:55.932Z,23.72
2017-01-04T05:25:55.873Z,24.01
2017-01-04T05:26:55.807Z,23.81
2017-01-04T05:27:55.744Z,23.72
2017-01-04T05:28:55.682Z,23.72
2017-01-04T05:29:55.619Z,23.43
2017-01-04T05:30:55.557Z,23.52
2017-01-04T05:31:55.491Z,23.43
2017-01-04T05:32:55.430Z,24.01
2017-01-04T05:33:55.372Z,23.81
2017-01-04T05:34:55.311Z,23.62
2017-01-04T05:35:55.243Z,23.52
2017-01-04T05:36:55.180Z,23.43
2017-01-04T05:37:55.115Z,23.33
2017-01-04T05:38:55.442Z,23.33
2017-01-04T05:39:54.992Z,23.52
2017-01-04T05:40:54.928Z,23.62
2017-01-04T05:41:54.868Z,23.62
2017-01-04T05:42:54.804Z,23.33
2017-01-04T05:43:54.745Z,23.62
2017-01-04T05:44:54.679Z,23.33
2017-01-04T05:45:54.616Z,23.24
2017-01-04T05:46:54.551Z,23.43
2017-01-04T05:47:54.490Z,23.43
2017-01-04T05:48:54.427Z,23.43
2017-01-04T05:49:54.366Z,23.04
2017-01-04T05:50:54.300Z,23.43
2017-01-04T05:51:54.239Z,23.24
2017-01-04T05:52:54.175Z,23.14
2017-01-04T05:53:54.113Z,23.14
2017-01-04T05:54:54.050Z,23.04
2017-01-04T05:55:53.986Z,23.14
2017-01-04T05:56:53.922Z,23.14
2017-01-04T05:57:53.862Z,23.04
2017-01-04T05:58:53.799Z,22.94
2017-01-04T05:59:53.733Z,23.04
2017-01-04T06:00:53.670Z,23.33
2017-01-04T06:01:53.612Z,23.04
2017-01-04T06:02:53.547Z,22.94
2017-01-04T06:03:53.483Z,23.24
2017-01-04T06:04:53.422Z,23.14
2017-01-04T06:05:53.359Z,23.24
2017-01-04T06:06:53.293Z,23.24
2017-01-04T06:07:53.229Z,23.33
2017-01-04T06:08:53.170Z,23.33
2017-01-04T06:09:53.110Z,22.75
2017-01-04T06:10:53.043Z,23.24
2017-01-04T06:11:52.983Z,22.85
2017-01-04T06:12:52.919Z,22.75
2017-01-04T06:13:52.857Z,22.75
2017-01-04T06:14:52.792Z,22.75
2017-01-04T06:15:52.733Z,22.85
2017-01-04T06:16:52.695Z,23.52
2017-01-04T06:17:52.608Z,23.81
2017-01-04T06:18:52.541Z,22.75
2017-01-04T06:19:52.480Z,22.75
2017-01-04T06:20:52.415Z,22.85
2017-01-04T06:21:52.353Z,22.94
2017-01-04T06:22:52.290Z,22.85
2017-01-04T06:23:52.227Z,22.85
2017-01-04T06:24:52.164Z,22.94
2017-01-04T06:25:52.103Z,22.94
2017-01-04T06:26:52.039Z,22.94
2017-01-04T06:27:51.977Z,23.04
2017-01-04T06:28:51.911Z,22.94
2017-01-04T06:29:51.851Z,22.94
2017-01-04T06:30:51.789Z,23.04
2017-01-04T06:31:51.927Z,22.85
2017-01-04T06:32:51.662Z,23.04
2017-01-04T06:33:51.598Z,23.04
2017-01-04T06:34:51.537Z,23.04
2017-01-04T06:35:51.509Z,22.94
2017-01-04T06:36:51.411Z,23.04
2017-01-04T06:37:51.348Z,23.04
2017-01-04T06:38:51.284Z,23.04
2017-01-04T06:39:51.221Z,23.04
2017-01-04T06:40:51.160Z,23.04
2017-01-04T06:41:51.098Z,23.04
2017-01-04T06:42:51.036Z,23.04
2017-01-04T06:43:50.970Z,22.75
2017-01-04T06:44:50.907Z,23.04
2017-01-04T06:45:50.847Z,22.94
2017-01-04T06:46:50.781Z,22.85
2017-01-04T06:47:50.720Z,23.04
2017-01-04T06:48:50.658Z,22.94
2017-01-04T06:49:50.598Z,22.85
2017-01-04T06:50:50.535Z,22.66
2017-01-04T06:51:50.466Z,22.75
2017-01-04T06:52:50.406Z,22.85
2017-01-04T06:53:50.345Z,22.85
2017-01-04T06:54:50.279Z,22.94
2017-01-04T06:55:50.219Z,22.56
2017-01-04T06:56:50.156Z,22.85
2017-01-04T06:57:50.094Z,22.75
2017-01-04T06:58:50.029Z,22.75
2017-01-04T06:59:49.967Z,22.94
2017-01-04T07:00:49.920Z,22.75
2017-01-04T07:01:49.838Z,22.66
2017-01-04T07:02:49.778Z,22.66
2017-01-04T07:03:49.713Z,22.75
2017-01-04T07:04:49.653Z,22.75
2017-01-04T07:05:49.588Z,22.85
2017-01-04T07:06:49.525Z,22.66
2017-01-04T07:07:49.471Z,22.85
2017-01-04T07:08:49.404Z,22.36
2017-01-04T07:09:49.342Z,22.85
2017-01-04T07:10:49.274Z,22.75
2017-01-04T07:11:49.212Z,22.75
2017-01-04T07:12:49.147Z,22.85
2017-01-04T07:13:49.086Z,22.75
2017-01-04T07:14:49.023Z,22.75
2017-01-04T07:15:48.959Z,22.46
2017-01-04T07:16:48.898Z,22.66
2017-01-04T07:17:48.855Z,22.56
2017-01-04T07:18:48.771Z,22.56
2017-01-04T07:19:48.709Z,22.56
2017-01-04T07:20:48.647Z,22.56
2017-01-04T07:21:48.583Z,22.46
2017-01-04T07:22:48.522Z,22.56
2017-01-04T07:23:48.456Z,22.46
2017-01-04T07:24:48.393Z,22.56
2017-01-04T07:25:48.331Z,22.66
2017-01-04T07:26:48.268Z,22.56
2017-01-04T07:27:48.205Z,22.66
2017-01-04T07:28:48.140Z,22.66
2017-01-04T07:29:48.078Z,22.56
2017-01-04T07:30:48.020Z,22.66
2017-01-04T07:31:47.952Z,22.46
2017-01-04T07:32:47.892Z,22.46
2017-01-04T07:33:47.826Z,22.46
2017-01-04T07:34:47.764Z,22.56
2017-01-04T07:35:47.702Z,22.46
2017-01-04T07:36:47.646Z,22.46
2017-01-04T07:37:47.575Z,22.56
2017-01-04T07:38:47.519Z,22.46
2017-01-04T07:39:47.454Z,22.46
2017-01-04T07:40:47.387Z,22.56
2017-01-04T07:41:47.337Z,22.56
2017-01-04T07:42:47.261Z,22.46
2017-01-04T07:43:47.198Z,22.56
2017-01-04T07:44:47.133Z,22.66
2017-01-04T07:45:47.068Z,22.36
2017-01-04T07:46:47.008Z,22.66
2017-01-04T07:47:46.957Z,22.56
2017-01-04T07:48:46.887Z,22.27
2017-01-04T07:49:46.821Z,22.36
2017-01-04T07:50:46.754Z,22.56
2017-01-04T07:51:46.694Z,22.46
2017-01-04T07:52:46.633Z,22.36
2017-01-04T07:53:46.568Z,22.27
2017-01-04T07:54:46.502Z,22.46
2017-01-04T07:55:46.440Z,22.36
2017-01-04T07:56:46.377Z,22.56
2017-01-04T07:57:46.312Z,22.08
2017-01-04T07:58:46.251Z,22.08
2017-01-04T07:59:46.189Z,22.27
2017-01-04T08:00:46.130Z,22.27
2017-01-04T08:01:46.062Z,22.17
2017-01-04T08:02:46.000Z,22.17
2017-01-04T08:03:45.935Z,22.27
2017-01-04T08:04:45.875Z,22.08
2017-01-04T08:05:45.810Z,22.17
2017-01-04T08:06:45.749Z,22.27
2017-01-04T08:07:45.687Z,22.08
2017-01-04T08:08:45.624Z,22.17
2017-01-04T08:09:45.559Z,22.17
2017-01-04T08:10:45.496Z,22.08
2017-01-04T08:11:45.443Z,22.17
2017-01-04T08:12:45.372Z,21.98
2017-01-04T08:13:45.307Z,21.88
2017-01-04T08:14:45.244Z,21.79
2017-01-04T08:15:45.181Z,21.88
2017-01-04T08:16:45.117Z,21.4
2017-01-04T08:17:45.056Z,21.59
2017-01-04T08:18:44.993Z,21.4
2017-01-04T08:19:44.931Z,21.59
2017-01-04T08:20:44.870Z,21.59
2017-01-04T08:21:44.805Z,21.69
2017-01-04T08:22:44.740Z,21.59
2017-01-04T08:23:44.690Z,21.59
2017-01-04T08:24:44.617Z,21.5
2017-01-04T08:25:44.556Z,21.5
2017-01-04T08:26:44.490Z,21.69
2017-01-04T08:27:44.430Z,21.59
2017-01-04T08:28:44.366Z,21.59
2017-01-04T08:29:44.302Z,21.59
2017-01-04T08:31:44.180Z,21.59
2017-01-04T08:32:44.114Z,21.59
2017-01-04T08:33:44.052Z,21.69
2017-01-04T08:34:44.379Z,21.69
2017-01-04T08:35:43.927Z,21.69
2017-01-04T08:36:43.864Z,21.79
2017-01-04T08:37:43.801Z,21.69
2017-01-04T08:38:43.741Z,21.79
2017-01-04T08:39:43.674Z,21.79
2017-01-04T08:40:43.615Z,21.69
2017-01-04T08:41:43.551Z,21.79
2017-01-04T08:42:43.487Z,21.79
2017-01-04T08:43:43.424Z,21.79
2017-01-04T08:44:43.372Z,21.79
2017-01-04T08:45:43.299Z,21.79
2017-01-04T08:46:43.236Z,21.79
2017-01-04T08:47:43.173Z,21.5
2017-01-04T08:48:43.112Z,21.59
2017-01-04T08:49:43.049Z,21.79
2017-01-04T08:50:43.018Z,21.79
2017-01-04T08:51:42.956Z,21.5
2017-01-04T08:52:42.861Z,21.59
2017-01-04T08:53:42.801Z,21.69
2017-01-04T08:54:42.738Z,21.69
2017-01-04T08:55:42.674Z,21.69
2017-01-04T08:56:42.613Z,21.69
2017-01-04T08:57:42.551Z,21.69
2017-01-04T08:58:42.488Z,21.79
2017-01-04T08:59:42.424Z,21.69
2017-01-04T09:00:42.362Z,21.69
2017-01-04T09:01:42.297Z,21.79
2017-01-04T09:02:42.235Z,21.69
2017-01-04T09:03:42.176Z,21.69
2017-01-04T09:04:42.113Z,21.69
2017-01-04T09:05:42.049Z,21.69
2017-01-04T09:06:41.985Z,21.69
2017-01-04T09:07:41.920Z,21.69
2017-01-04T09:08:41.861Z,21.69
2017-01-04T09:09:41.801Z,21.69
2017-01-04T09:10:41.735Z,21.69
2017-01-04T09:11:41.673Z,21.59
2017-01-04T09:12:41.610Z,21.59
2017-01-04T09:13:41.546Z,21.69
2017-01-04T09:14:41.482Z,21.59
2017-01-04T09:15:41.574Z,21.79
2017-01-04T09:16:41.357Z,21.79
2017-01-04T09:17:41.305Z,21.59
2017-01-04T09:18:41.233Z,21.4
2017-01-04T09:19:41.172Z,21.59
2017-01-04T09:20:41.105Z,21.69
2017-01-04T09:21:41.046Z,21.69
2017-01-04T09:22:40.982Z,21.69
2017-01-04T09:23:40.918Z,21.31
2017-01-04T09:24:40.858Z,21.59
2017-01-04T09:25:40.792Z,21.69
2017-01-04T09:26:40.732Z,21.59
2017-01-04T09:27:40.667Z,21.59
2017-01-04T09:28:40.605Z,21.59
2017-01-04T09:29:40.544Z,21.59
2017-01-04T09:30:40.832Z,21.59
2017-01-04T09:31:40.417Z,21.59
2017-01-04T09:32:40.355Z,21.4
2017-01-04T09:33:40.293Z,21.79
2017-01-04T09:34:40.230Z,21.69
2017-01-04T09:35:40.168Z,21.69
2017-01-04T09:36:40.105Z,21.79
2017-01-04T09:37:40.044Z,22.17
2017-01-04T09:38:39.989Z,22.85
2017-01-04T09:39:39.915Z,22.85
2017-01-04T09:40:39.863Z,23.33
2017-01-04T09:41:39.790Z,23.14
2017-01-04T09:42:39.729Z,23.33
2017-01-04T09:43:39.826Z,23.81
2017-01-04T09:44:39.607Z,23.43
2017-01-04T09:45:39.541Z,24.2
2017-01-04T09:46:39.487Z,24.2
2017-01-04T09:47:39.415Z,24.68
2017-01-04T09:48:39.353Z,24.68
2017-01-04T09:49:39.289Z,24.87
2017-01-04T09:50:39.224Z,25.35
2017-01-04T09:51:39.165Z,25.64
2017-01-04T09:52:39.103Z,26.03
2017-01-04T09:53:39.037Z,26.22
2017-01-04T09:54:38.975Z,26.42
2017-01-04T09:55:38.921Z,26.42
2017-01-04T09:56:38.850Z,26.12
2017-01-04T09:57:38.787Z,25.84
2017-01-04T09:58:38.725Z,25.93
2017-01-04T09:59:38.665Z,25.55
2017-01-04T10:00:38.599Z,25.45
2017-01-04T10:01:38.553Z,25.35
2017-01-04T10:02:38.475Z,25.16
2017-01-04T10:03:38.425Z,25.07
2017-01-04T10:04:38.350Z,25.07
2017-01-04T10:05:38.287Z,24.68
2017-01-04T10:06:38.227Z,24.77
2017-01-04T10:07:38.163Z,24.58
2017-01-04T10:08:38.101Z,24.29
2017-01-04T10:09:38.103Z,24.29
2017-01-04T10:10:38.023Z,24.2
2017-01-04T10:11:37.917Z,24.29
2017-01-04T10:12:37.853Z,24.39
2017-01-04T10:13:38.183Z,24.21
2017-01-04T10:14:37.727Z,24.2
2017-01-04T10:15:37.667Z,24.5
2017-01-04T10:16:37.599Z,24.1
2017-01-04T10:17:37.539Z,24.1
2017-01-04T10:18:37.476Z,24.39
2017-01-04T10:19:37.414Z,24.1
2017-01-04T10:20:37.351Z,23.72
2017-01-04T10:21:37.286Z,23.91
2017-01-04T10:22:37.226Z,23.82
2017-01-04T10:23:37.164Z,23.72
2017-01-04T10:24:37.101Z,23.72
2017-01-04T10:25:37.037Z,23.72
2017-01-04T10:26:36.977Z,24.02
2017-01-04T10:27:36.984Z,24.1
2017-01-04T10:28:36.908Z,24.2
2017-01-04T10:29:36.945Z,24.2
2017-01-04T10:30:36.797Z,24.3
2017-01-04T10:31:36.755Z,24.5
2017-01-04T10:32:36.724Z,25.08
2017-01-04T10:33:36.662Z,25.18
2017-01-04T10:34:36.586Z,25.37
2017-01-04T10:35:36.530Z,25.56
2017-01-04T10:36:36.467Z,25.95
2017-01-04T10:37:36.291Z,25.85
2017-01-04T10:38:36.337Z,26.14
2017-01-04T10:39:36.251Z,25.95
2017-01-04T10:40:36.182Z,26.04
2017-01-04T10:41:36.041Z,25.95
2017-01-04T10:42:36.014Z,25.95
2017-01-04T10:43:35.988Z,26.04
2017-01-04T10:44:35.856Z,25.66
2017-01-04T10:45:35.796Z,25.46
2017-01-04T10:46:35.732Z,25.08
2017-01-04T10:47:35.671Z,25.08
2017-01-04T10:48:35.609Z,24.98
2017-01-04T10:49:35.548Z,24.79
2017-01-04T10:50:35.484Z,24.69
2017-01-04T10:51:35.421Z,24.6
2017-01-04T10:52:35.358Z,24.4
2017-01-04T10:53:35.296Z,24.69
2017-01-04T10:54:35.235Z,24.4
2017-01-04T10:55:35.170Z,24.5
2017-01-04T10:56:35.109Z,24.3
2017-01-04T10:57:35.150Z,24.02
2017-01-04T10:58:34.985Z,24.11
2017-01-04T10:59:34.922Z,24.21
2017-01-04T11:00:34.865Z,23.92
2017-01-04T11:01:34.797Z,23.72
2017-01-04T11:02:34.739Z,23.82
2017-01-04T11:03:34.675Z,23.82
2017-01-04T11:04:34.613Z,24.4
2017-01-04T11:05:34.549Z,23.92
2017-01-04T11:06:34.486Z,23.63
2017-01-04T11:07:34.425Z,23.34
2017-01-04T11:08:34.362Z,23.72
2017-01-04T11:09:34.301Z,23.54
2017-01-04T11:10:34.236Z,23.54
2017-01-04T11:11:34.279Z,22.28
2017-01-04T11:12:34.148Z,21.59
2017-01-04T11:13:34.092Z,22.27
2017-01-04T11:14:34.036Z,22.26
2017-01-04T11:15:33.925Z,22.26
2017-01-04T11:16:33.861Z,22.27
2017-01-04T11:17:33.816Z,22.36
2017-01-04T11:18:33.774Z,22.27
2017-01-04T11:19:33.673Z,22.17
2017-01-04T11:20:33.610Z,22.45
2017-01-04T11:21:33.543Z,22.93
2017-01-04T11:22:33.567Z,23.11
2017-01-04T11:23:33.443Z,23.39
2017-01-04T11:24:33.351Z,23.3
2017-01-04T11:25:33.290Z,23.68
2017-01-04T11:26:33.221Z,23.39
2017-01-04T11:27:33.206Z,23.21
2017-01-04T11:28:33.444Z,23.4
2017-01-04T11:29:33.094Z,23.6
2017-01-04T11:30:33.185Z,23.6
2017-01-04T11:31:32.900Z,23.31
2017-01-04T11:32:32.835Z,23.11
2017-01-04T11:33:32.773Z,23.11
2017-01-04T11:34:32.713Z,23.31
2017-01-04T11:35:32.642Z,23.22
2017-01-04T11:36:32.579Z,23.32
2017-01-04T11:37:32.542Z,23.11
2017-01-04T11:38:32.473Z,23.22
2017-01-04T11:39:32.405Z,23.13
2017-01-04T11:40:32.329Z,23.41
2017-01-04T11:41:32.454Z,23.32
2017-01-04T11:42:32.246Z,23.41
2017-01-04T11:43:32.154Z,23.32
2017-01-04T11:44:32.126Z,23.99
2017-01-04T11:45:32.059Z,23.9
2017-01-04T11:46:31.982Z,23.9
2017-01-04T11:47:31.928Z,23.32
2017-01-04T11:48:31.867Z,23.51
2017-01-04T11:49:32.032Z,23.51
2017-01-04T11:50:31.693Z,23.61
2017-01-04T11:51:31.679Z,23.71
2017-01-04T11:52:31.557Z,23.41
2017-01-04T11:53:31.509Z,23.41
2017-01-04T11:54:31.433Z,23.41
2017-01-04T11:55:31.372Z,23.5
2017-01-04T11:56:31.301Z,23.8
2017-01-04T11:57:31.237Z,23.71
2017-01-04T11:58:31.183Z,23.88
2017-01-04T11:59:31.123Z,23.9
2017-01-04T12:00:31.057Z,23.9
2017-01-04T12:01:30.985Z,23.71
2017-01-04T12:02:30.918Z,23.9
2017-01-04T12:03:30.871Z,23.71
2017-01-04T12:04:30.796Z,23.8
2017-01-04T12:05:31.041Z,23.8
2017-01-04T12:06:30.680Z,23.8
2017-01-04T12:07:30.608Z,23.71
2017-01-04T12:08:30.555Z,23.71
2017-01-04T12:09:30.479Z,23.8
2017-01-04T12:10:30.419Z,23.9
2017-01-04T12:11:30.363Z,23.99
2017-01-04T12:12:30.490Z,23.71
2017-01-04T12:13:30.233Z,23.9
2017-01-04T12:14:30.166Z,23.71
2017-01-04T12:15:30.099Z,23.9
2017-01-04T12:16:30.039Z,23.71
2017-01-04T12:17:29.973Z,23.71
2017-01-04T12:18:29.918Z,23.71
2017-01-04T12:19:29.849Z,23.99
2017-01-04T12:20:29.786Z,23.9
2017-01-04T12:21:29.724Z,23.9
2017-01-04T12:22:29.662Z,23.61
2017-01-04T12:23:29.598Z,23.9
2017-01-04T12:24:29.571Z,23.8
2017-01-04T12:25:29.477Z,23.71
2017-01-04T12:26:29.408Z,23.71
2017-01-04T12:27:29.347Z,23.71
2017-01-04T12:28:29.285Z,23.9
2017-01-04T12:29:29.221Z,23.8
2017-01-04T12:30:29.165Z,23.8
2017-01-04T12:31:29.098Z,23.8
2017-01-04T12:32:29.033Z,23.71
2017-01-04T12:33:28.972Z,23.8
2017-01-04T12:34:28.909Z,23.71
2017-01-04T12:35:28.846Z,23.9
2017-01-04T12:36:28.787Z,23.71
2017-01-04T12:37:28.719Z,23.9
2017-01-04T12:38:28.658Z,23.71
2017-01-04T12:39:28.596Z,23.9
2017-01-04T12:40:28.534Z,23.71
2017-01-04T12:41:28.469Z,23.71
2017-01-04T12:42:28.408Z,23.71
2017-01-04T12:43:28.344Z,23.99
2017-01-04T12:44:28.283Z,23.71
2017-01-04T12:45:28.222Z,23.8
2017-01-04T12:46:28.159Z,23.9
2017-01-04T12:47:28.093Z,23.71
2017-01-04T12:48:28.030Z,23.9
2017-01-04T12:49:27.968Z,23.8
2017-01-04T12:50:27.905Z,23.8
2017-01-04T12:51:27.843Z,23.71
2017-01-04T12:52:27.782Z,23.8
2017-01-04T12:53:27.716Z,23.61
2017-01-04T12:54:28.044Z,23.71
2017-01-04T12:55:27.596Z,23.8
2017-01-04T12:56:27.527Z,23.51
2017-01-04T12:57:27.465Z,23.51